Terminal Aerodrome Forecast
Issued by NWS

Current Version | Previous Version | Graphics & Text | Print | Product List | Glossary On
Versions: 1 2 3 4 5 6 7 8 9 10 11 12 13 14 15 16 17
000
FTUS41 KILN 201100
TAFLCK
TAF
KLCK 201120Z 2012/2112 01007KT P6SM BKN150
     FM210300 03007KT P6SM VCSH BKN050
     FM210900 02005KT P6SM VCSH BKN035=

USA.gov is the U.S. government's official web portal to all federal, state and local government web resources and services.